sensor_id;sensor_type;location;lat;lon;timestamp;pressure;altitude;pressure_sealevel;temperature;humidity
52105;BME280;38103;42.776;23.112;2023-05-23T00:00:58;93841.09;;;9.12;100.00
52105;BME280;38103;42.776;23.112;2023-05-23T00:03:24;93833.97;;;9.12;100.00
52105;BME280;38103;42.776;23.112;2023-05-23T00:05:50;93840.88;;;9.25;100.00
52105;BME280;38103;42.776;23.112;2023-05-23T00:08:16;93844.22;;;9.33;100.00
52105;BME280;38103;42.776;23.112;2023-05-23T00:10:42;93840.28;;;9.23;100.00
52105;BME280;38103;42.776;23.112;2023-05-23T00:13:07;93838.47;;;9.12;100.00
52105;BME280;38103;42.776;23.112;2023-05-23T00:15:34;93838.88;;;8.85;100.00
52105;BME280;38103;42.776;23.112;2023-05-23T00:18:01;93839.44;;;8.75;100.00
52105;BME280;38103;42.776;23.112;2023-05-23T00:20:27;93839.78;;;8.78;100.00
52105;BME280;38103;42.776;23.112;2023-05-23T00:22:53;93804.81;;;8.71;100.00
52105;BME280;38103;42.776;23.112;2023-05-23T00:25:18;93840.94;;;8.82;100.00
52105;BME280;38103;42.776;23.112;2023-05-23T00:27:46;93837.47;;;8.70;100.00
52105;BME280;38103;42.776;23.112;2023-05-23T00:30:11;93834.97;;;8.75;100.00
52105;BME280;38103;42.776;23.112;2023-05-23T00:32:37;93843.34;;;8.84;100.00
52105;BME280;38103;42.776;23.112;2023-05-23T00:35:02;93840.88;;;9.01;100.00
52105;BME280;38103;42.776;23.112;2023-05-23T00:37:28;93847.41;;;8.99;100.00
52105;BME280;38103;42.776;23.112;2023-05-23T00:39:53;93839.25;;;9.00;100.00
52105;BME280;38103;42.776;23.112;2023-05-23T00:42:18;93838.78;;;9.03;100.00
52105;BME280;38103;42.776;23.112;2023-05-23T00:44:44;93840.28;;;8.99;100.00
52105;BME280;38103;42.776;23.112;2023-05-23T00:47:09;93839.13;;;8.95;100.00
52105;BME280;38103;42.776;23.112;2023-05-23T00:49:38;93779.06;;;8.54;100.00
52105;BME280;38103;42.776;23.112;2023-05-23T00:52:04;93834.16;;;8.87;100.00
52105;BME280;38103;42.776;23.112;2023-05-23T00:54:29;93835.22;;;8.86;100.00
52105;BME280;38103;42.776;23.112;2023-05-23T00:56:55;93812.72;;;8.71;100.00
52105;BME280;38103;42.776;23.112;2023-05-23T00:59:23;93837.53;;;8.94;100.00
52105;BME280;38103;42.776;23.112;2023-05-23T01:01:49;93837.66;;;9.11;100.00
52105;BME280;38103;42.776;23.112;2023-05-23T01:04:15;93839.59;;;9.16;100.00
52105;BME280;38103;42.776;23.112;2023-05-23T01:06:41;93830.88;;;9.03;100.00
52105;BME280;38103;42.776;23.112;2023-05-23T01:09:12;93828.38;;;9.09;100.00
52105;BME280;38103;42.776;23.112;2023-05-23T01:11:54;93844.50;;;8.88;100.00
52105;BME280;38103;42.776;23.112;2023-05-23T01:14:28;93835.66;;;8.82;100.00
52105;BME280;38103;42.776;23.112;2023-05-23T01:17:03;93808.78;;;8.62;100.00
52105;BME280;38103;42.776;23.112;2023-05-23T01:20:15;93839.66;;;8.73;100.00
52105;BME280;38103;42.776;23.112;2023-05-23T01:28:19;93844.34;;;8.71;100.00
52105;BME280;38103;42.776;23.112;2023-05-23T01:30:47;93832.25;;;8.94;100.00
52105;BME280;38103;42.776;23.112;2023-05-23T01:33:16;93835.00;;;8.99;100.00
52105;BME280;38103;42.776;23.112;2023-05-23T01:35:42;93828.81;;;9.05;100.00
52105;BME280;38103;42.776;23.112;2023-05-23T01:38:08;93822.16;;;9.03;100.00
52105;BME280;38103;42.776;23.112;2023-05-23T01:40:35;93815.06;;;9.03;100.00
52105;BME280;38103;42.776;23.112;2023-05-23T01:43:01;93810.47;;;9.11;100.00
52105;BME280;38103;42.776;23.112;2023-05-23T01:45:27;93773.09;;;8.90;100.00
52105;BME280;38103;42.776;23.112;2023-05-23T01:47:53;93814.59;;;9.19;100.00
52105;BME280;38103;42.776;23.112;2023-05-23T01:50:20;93818.16;;;9.24;100.00
52105;BME280;38103;42.776;23.112;2023-05-23T01:52:46;93796.84;;;9.14;100.00
52105;BME280;38103;42.776;23.112;2023-05-23T01:55:13;93788.69;;;9.03;100.00
52105;BME280;38103;42.776;23.112;2023-05-23T01:57:40;93785.03;;;9.04;100.00
52105;BME280;38103;42.776;23.112;2023-05-23T02:00:07;93814.25;;;9.03;100.00
52105;BME280;38103;42.776;23.112;2023-05-23T02:02:35;93813.56;;;9.08;100.00
52105;BME280;38103;42.776;23.112;2023-05-23T02:05:00;93812.09;;;9.12;100.00
52105;BME280;38103;42.776;23.112;2023-05-23T02:07:26;93821.03;;;9.11;100.00
52105;BME280;38103;42.776;23.112;2023-05-23T02:09:52;93827.69;;;9.01;100.00
52105;BME280;38103;42.776;23.112;2023-05-23T02:12:17;93760.38;;;8.44;100.00
52105;BME280;38103;42.776;23.112;2023-05-23T02:14:43;93822.81;;;8.74;100.00
52105;BME280;38103;42.776;23.112;2023-05-23T02:17:08;93811.91;;;8.70;100.00
52105;BME280;38103;42.776;23.112;2023-05-23T02:19:34;93813.63;;;8.65;100.00
52105;BME280;38103;42.776;23.112;2023-05-23T02:22:00;93818.97;;;8.58;100.00
52105;BME280;38103;42.776;23.112;2023-05-23T02:24:25;93819.47;;;8.67;100.00
52105;BME280;38103;42.776;23.112;2023-05-23T02:26:50;93822.81;;;8.74;100.00
52105;BME280;38103;42.776;23.112;2023-05-23T02:29:17;93821.91;;;8.80;100.00
52105;BME280;38103;42.776;23.112;2023-05-23T02:31:42;93816.41;;;8.82;100.00
52105;BME280;38103;42.776;23.112;2023-05-23T02:34:08;93822.94;;;8.79;100.00
52105;BME280;38103;42.776;23.112;2023-05-23T03:00:02;93817.28;;;8.64;100.00
52105;BME280;38103;42.776;23.112;2023-05-23T03:02:27;93824.16;;;8.65;100.00
52105;BME280;38103;42.776;23.112;2023-05-23T03:04:52;93824.31;;;8.51;100.00
52105;BME280;38103;42.776;23.112;2023-05-23T03:07:18;93818.50;;;8.30;100.00
52105;BME280;38103;42.776;23.112;2023-05-23T03:09:43;93827.50;;;8.41;100.00
52105;BME280;38103;42.776;23.112;2023-05-23T03:12:08;93670.47;;;7.54;100.00
52105;BME280;38103;42.776;23.112;2023-05-23T03:14:34;93816.72;;;8.43;100.00
52105;BME280;38103;42.776;23.112;2023-05-23T03:16:59;93821.25;;;8.54;100.00
52105;BME280;38103;42.776;23.112;2023-05-23T03:19:24;93822.22;;;8.60;100.00
52105;BME280;38103;42.776;23.112;2023-05-23T03:21:50;93823.81;;;8.61;100.00
52105;BME280;38103;42.776;23.112;2023-05-23T03:24:16;93830.59;;;8.69;100.00
52105;BME280;38103;42.776;23.112;2023-05-23T03:26:42;93824.41;;;8.63;100.00
52105;BME280;38103;42.776;23.112;2023-05-23T03:29:07;93829.06;;;8.61;100.00
52105;BME280;38103;42.776;23.112;2023-05-23T03:31:35;93828.53;;;8.71;100.00
52105;BME280;38103;42.776;23.112;2023-05-23T03:34:00;93829.94;;;8.86;100.00
52105;BME280;38103;42.776;23.112;2023-05-23T03:36:25;93836.16;;;8.91;100.00
52105;BME280;38103;42.776;23.112;2023-05-23T03:38:52;93839.56;;;8.92;100.00
52105;BME280;38103;42.776;23.112;2023-05-23T03:41:18;93838.72;;;9.22;100.00
52105;BME280;38103;42.776;23.112;2023-05-23T03:43:43;93847.41;;;9.59;100.00
52105;BME280;38103;42.776;23.112;2023-05-23T03:46:08;93841.19;;;9.89;100.00
52105;BME280;38103;42.776;23.112;2023-05-23T03:48:34;93845.00;;;10.23;100.00
52105;BME280;38103;42.776;23.112;2023-05-23T03:50:59;93842.81;;;10.49;100.00
52105;BME280;38103;42.776;23.112;2023-05-23T03:53:24;93839.72;;;10.81;100.00
52105;BME280;38103;42.776;23.112;2023-05-23T03:55:50;93835.97;;;11.12;100.00
52105;BME280;38103;42.776;23.112;2023-05-23T03:58:18;93843.28;;;11.39;100.00
52105;BME280;38103;42.776;23.112;2023-05-23T04:00:43;93832.94;;;11.60;100.00
52105;BME280;38103;42.776;23.112;2023-05-23T04:03:09;93841.78;;;11.88;100.00
52105;BME280;38103;42.776;23.112;2023-05-23T04:05:35;93839.41;;;12.09;100.00
52105;BME280;38103;42.776;23.112;2023-05-23T04:08:00;93848.41;;;12.08;100.00
52105;BME280;38103;42.776;23.112;2023-05-23T04:10:26;93849.91;;;11.59;100.00
52105;BME280;38103;42.776;23.112;2023-05-23T04:12:51;93842.03;;;11.64;100.00
52105;BME280;38103;42.776;23.112;2023-05-23T04:15:17;93839.00;;;11.78;100.00
52105;BME280;38103;42.776;23.112;2023-05-23T04:17:45;93836.19;;;11.62;100.00
52105;BME280;38103;42.776;23.112;2023-05-23T04:20:11;93840.06;;;11.20;100.00
52105;BME280;38103;42.776;23.112;2023-05-23T04:22:37;93842.78;;;11.08;100.00
52105;BME280;38103;42.776;23.112;2023-05-23T04:37:18;93845.72;;;11.85;100.00
52105;BME280;38103;42.776;23.112;2023-05-23T04:39:47;93836.03;;;11.51;100.00
52105;BME280;38103;42.776;23.112;2023-05-23T04:42:12;93853.34;;;11.42;100.00
52105;BME280;38103;42.776;23.112;2023-05-23T04:56:11;93842.75;;;12.44;100.00
52105;BME280;38103;42.776;23.112;2023-05-23T04:58:36;93840.69;;;12.51;100.00
52105;BME280;38103;42.776;23.112;2023-05-23T05:01:01;93844.75;;;12.59;100.00
52105;BME280;38103;42.776;23.112;2023-05-23T05:03:27;93840.81;;;12.62;100.00
52105;BME280;38103;42.776;23.112;2023-05-23T05:05:52;93846.28;;;12.55;100.00
52105;BME280;38103;42.776;23.112;2023-05-23T05:08:18;93853.34;;;12.22;100.00
52105;BME280;38103;42.776;23.112;2023-05-23T05:10:46;93847.28;;;12.04;100.00
52105;BME280;38103;42.776;23.112;2023-05-23T05:13:11;93839.78;;;11.95;100.00
52105;BME280;38103;42.776;23.112;2023-05-23T05:15:36;93839.22;;;11.93;100.00
52105;BME280;38103;42.776;23.112;2023-05-23T05:18:02;93844.16;;;11.84;100.00
52105;BME280;38103;42.776;23.112;2023-05-23T05:20:27;93839.06;;;11.83;100.00
52105;BME280;38103;42.776;23.112;2023-05-23T05:22:56;93844.81;;;11.75;100.00
52105;BME280;38103;42.776;23.112;2023-05-23T05:25:22;93846.19;;;12.00;100.00
52105;BME280;38103;42.776;23.112;2023-05-23T05:27:48;93848.41;;;12.08;100.00
52105;BME280;38103;42.776;23.112;2023-05-23T05:30:13;93840.41;;;12.03;100.00
52105;BME280;38103;42.776;23.112;2023-05-23T05:32:39;93849.88;;;11.99;100.00
52105;BME280;38103;42.776;23.112;2023-05-23T05:35:04;93848.63;;;12.24;100.00
52105;BME280;38103;42.776;23.112;2023-05-23T05:37:32;93856.06;;;12.27;100.00
52105;BME280;38103;42.776;23.112;2023-05-23T05:39:57;93851.16;;;11.96;100.00
52105;BME280;38103;42.776;23.112;2023-05-23T05:42:23;93851.34;;;11.89;100.00
52105;BME280;38103;42.776;23.112;2023-05-23T05:44:49;93860.59;;;12.09;100.00
52105;BME280;38103;42.776;23.112;2023-05-23T05:47:15;93852.50;;;12.38;100.00
52105;BME280;38103;42.776;23.112;2023-05-23T05:49:40;93865.31;;;12.47;100.00
52105;BME280;38103;42.776;23.112;2023-05-23T05:52:06;93868.56;;;12.09;100.00
52105;BME280;38103;42.776;23.112;2023-05-23T05:54:32;93874.03;;;11.80;100.00
52105;BME280;38103;42.776;23.112;2023-05-23T05:56:57;93871.81;;;11.37;100.00
52105;BME280;38103;42.776;23.112;2023-05-23T05:59:23;93873.19;;;11.22;100.00
52105;BME280;38103;42.776;23.112;2023-05-23T06:01:48;93870.78;;;11.38;100.00
52105;BME280;38103;42.776;23.112;2023-05-23T06:04:16;93875.66;;;11.46;100.00
52105;BME280;38103;42.776;23.112;2023-05-23T06:06:41;93871.00;;;11.54;100.00
52105;BME280;38103;42.776;23.112;2023-05-23T06:09:07;93864.91;;;11.36;100.00
52105;BME280;38103;42.776;23.112;2023-05-23T06:11:32;93870.28;;;11.58;100.00
52105;BME280;38103;42.776;23.112;2023-05-23T06:13:57;93874.53;;;11.42;100.00
52105;BME280;38103;42.776;23.112;2023-05-23T06:16:23;93876.78;;;11.50;100.00
52105;BME280;38103;42.776;23.112;2023-05-23T06:18:48;93877.91;;;11.20;100.00
52105;BME280;38103;42.776;23.112;2023-05-23T06:21:13;93878.59;;;10.98;100.00
52105;BME280;38103;42.776;23.112;2023-05-23T06:23:39;93878.31;;;11.12;100.00
52105;BME280;38103;42.776;23.112;2023-05-23T06:26:05;93830.59;;;11.06;100.00
52105;BME280;38103;42.776;23.112;2023-05-23T06:28:35;93876.59;;;11.57;100.00
52105;BME280;38103;42.776;23.112;2023-05-23T06:31:00;93866.47;;;11.71;100.00
52105;BME280;38103;42.776;23.112;2023-05-23T06:33:26;93831.22;;;11.48;100.00
52105;BME280;38103;42.776;23.112;2023-05-23T06:35:52;93865.84;;;11.64;100.00
52105;BME280;38103;42.776;23.112;2023-05-23T06:38:17;93857.84;;;11.59;100.00
52105;BME280;38103;42.776;23.112;2023-05-23T06:40:43;93869.69;;;11.73;100.00
52105;BME280;38103;42.776;23.112;2023-05-23T06:43:08;93864.66;;;11.94;100.00
52105;BME280;38103;42.776;23.112;2023-05-23T06:45:33;93862.91;;;11.83;100.00
52105;BME280;38103;42.776;23.112;2023-05-23T06:47:59;93865.88;;;12.26;100.00
52105;BME280;38103;42.776;23.112;2023-05-23T06:50:25;93866.88;;;12.20;100.00
52105;BME280;38103;42.776;23.112;2023-05-23T06:52:50;93865.63;;;12.28;100.00
52105;BME280;38103;42.776;23.112;2023-05-23T06:55:16;93869.47;;;11.98;100.00
52105;BME280;38103;42.776;23.112;2023-05-23T06:57:43;93863.78;;;12.28;100.00
52105;BME280;38103;42.776;23.112;2023-05-23T07:00:09;93861.88;;;12.24;100.00
52105;BME280;38103;42.776;23.112;2023-05-23T07:02:35;93855.38;;;12.59;100.00
52105;BME280;38103;42.776;23.112;2023-05-23T07:05:00;93849.19;;;12.81;100.00
52105;BME280;38103;42.776;23.112;2023-05-23T07:07:26;93849.25;;;13.19;100.00
52105;BME280;38103;42.776;23.112;2023-05-23T07:09:51;93823.22;;;13.55;100.00
52105;BME280;38103;42.776;23.112;2023-05-23T07:12:17;93839.66;;;13.95;100.00
52105;BME280;38103;42.776;23.112;2023-05-23T07:14:42;93842.16;;;14.17;100.00
52105;BME280;38103;42.776;23.112;2023-05-23T07:17:07;93842.78;;;14.51;100.00
52105;BME280;38103;42.776;23.112;2023-05-23T07:19:33;93836.16;;;14.53;100.00
52105;BME280;38103;42.776;23.112;2023-05-23T07:21:58;93832.25;;;14.88;100.00
52105;BME280;38103;42.776;23.112;2023-05-23T07:24:23;93834.94;;;14.93;100.00
52105;BME280;38103;42.776;23.112;2023-05-23T07:26:49;93837.53;;;14.72;100.00
52105;BME280;38103;42.776;23.112;2023-05-23T07:29:14;93835.91;;;14.50;100.00
52105;BME280;38103;42.776;23.112;2023-05-23T07:31:40;93834.63;;;14.73;100.00
52105;BME280;38103;42.776;23.112;2023-05-23T07:34:05;93824.28;;;15.08;100.00
52105;BME280;38103;42.776;23.112;2023-05-23T07:36:31;93807.25;;;15.04;100.00
52105;BME280;38103;42.776;23.112;2023-05-23T07:38:58;93828.00;;;15.28;100.00
52105;BME280;38103;42.776;23.112;2023-05-23T07:41:23;93818.91;;;15.66;100.00
52105;BME280;38103;42.776;23.112;2023-05-23T07:43:49;93825.81;;;15.72;100.00
52105;BME280;38103;42.776;23.112;2023-05-23T07:46:15;93837.25;;;15.83;100.00
52105;BME280;38103;42.776;23.112;2023-05-23T07:48:40;93813.50;;;16.08;100.00
52105;BME280;38103;42.776;23.112;2023-05-23T07:51:06;93830.97;;;16.35;100.00
52105;BME280;38103;42.776;23.112;2023-05-23T07:53:31;93830.38;;;16.49;100.00
52105;BME280;38103;42.776;23.112;2023-05-23T07:55:56;93836.31;;;16.35;100.00
52105;BME280;38103;42.776;23.112;2023-05-23T07:58:22;93830.50;;;16.73;100.00
52105;BME280;38103;42.776;23.112;2023-05-23T08:00:47;93825.91;;;16.84;100.00
52105;BME280;38103;42.776;23.112;2023-05-23T08:03:13;93825.63;;;17.26;100.00
52105;BME280;38103;42.776;23.112;2023-05-23T08:05:38;93814.75;;;17.47;100.00
52105;BME280;38103;42.776;23.112;2023-05-23T08:08:03;93819.91;;;17.68;100.00
52105;BME280;38103;42.776;23.112;2023-05-23T08:10:29;93823.38;;;17.39;100.00
52105;BME280;38103;42.776;23.112;2023-05-23T08:12:54;93825.13;;;17.79;100.00
52105;BME280;38103;42.776;23.112;2023-05-23T08:15:19;93823.22;;;17.84;100.00
52105;BME280;38103;42.776;23.112;2023-05-23T08:17:47;93825.31;;;18.12;100.00
52105;BME280;38103;42.776;23.112;2023-05-23T08:20:13;93821.06;;;18.11;100.00
52105;BME280;38103;42.776;23.112;2023-05-23T08:22:38;93822.38;;;18.38;100.00
52105;BME280;38103;42.776;23.112;2023-05-23T08:25:04;93821.84;;;18.36;100.00
52105;BME280;38103;42.776;23.112;2023-05-23T08:27:30;93828.00;;;18.12;100.00
52105;BME280;38103;42.776;23.112;2023-05-23T08:29:55;93828.53;;;18.58;100.00
52105;BME280;38103;42.776;23.112;2023-05-23T08:32:21;93826.16;;;18.95;100.00
52105;BME280;38103;42.776;23.112;2023-05-23T08:34:46;93835.84;;;18.72;100.00
52105;BME280;38103;42.776;23.112;2023-05-23T08:37:11;93833.81;;;18.44;100.00
52105;BME280;38103;42.776;23.112;2023-05-23T08:39:37;93826.53;;;18.01;100.00
52105;BME280;38103;42.776;23.112;2023-05-23T08:42:02;93819.88;;;18.23;100.00
52105;BME280;38103;42.776;23.112;2023-05-23T08:44:28;93818.56;;;18.20;100.00
52105;BME280;38103;42.776;23.112;2023-05-23T08:46:53;93816.50;;;18.12;100.00
52105;BME280;38103;42.776;23.112;2023-05-23T08:49:21;93825.25;;;18.17;100.00
52105;BME280;38103;42.776;23.112;2023-05-23T08:51:47;93821.84;;;18.12;100.00
52105;BME280;38103;42.776;23.112;2023-05-23T08:54:16;93816.13;;;18.24;100.00
52105;BME280;38103;42.776;23.112;2023-05-23T08:56:42;93808.78;;;18.35;100.00
52105;BME280;38103;42.776;23.112;2023-05-23T08:59:08;93811.38;;;18.15;100.00
52105;BME280;38103;42.776;23.112;2023-05-23T09:01:35;93807.16;;;18.34;100.00
52105;BME280;38103;42.776;23.112;2023-05-23T09:04:04;93776.78;;;18.00;100.00
52105;BME280;38103;42.776;23.112;2023-05-23T09:06:31;93783.28;;;17.93;100.00
52105;BME280;38103;42.776;23.112;2023-05-23T09:08:56;93810.06;;;18.13;100.00
52105;BME280;38103;42.776;23.112;2023-05-23T09:11:22;93808.41;;;18.41;100.00
52105;BME280;38103;42.776;23.112;2023-05-23T09:13:49;93781.34;;;18.24;100.00
52105;BME280;38103;42.776;23.112;2023-05-23T09:16:15;93818.09;;;18.37;100.00
52105;BME280;38103;42.776;23.112;2023-05-23T09:18:43;93811.97;;;18.56;100.00
52105;BME280;38103;42.776;23.112;2023-05-23T09:21:09;93813.00;;;18.60;100.00
52105;BME280;38103;42.776;23.112;2023-05-23T09:23:36;93769.69;;;18.53;100.00
52105;BME280;38103;42.776;23.112;2023-05-23T09:26:07;93809.44;;;18.65;96.45
52105;BME280;38103;42.776;23.112;2023-05-23T09:28:34;93797.28;;;18.53;79.02
52105;BME280;38103;42.776;23.112;2023-05-23T09:31:00;93814.59;;;18.81;90.33
52105;BME280;38103;42.776;23.112;2023-05-23T09:33:37;93811.06;;;18.99;89.95
52105;BME280;38103;42.776;23.112;2023-05-23T09:36:04;93796.09;;;19.18;100.00
52105;BME280;38103;42.776;23.112;2023-05-23T09:38:30;93801.94;;;19.20;76.36
52105;BME280;38103;42.776;23.112;2023-05-23T09:40:57;93804.25;;;19.07;72.58
52105;BME280;38103;42.776;23.112;2023-05-23T09:43:23;93806.81;;;19.18;73.02
52105;BME280;38103;42.776;23.112;2023-05-23T09:45:48;93807.25;;;18.86;74.65
52105;BME280;38103;42.776;23.112;2023-05-23T09:48:13;93797.69;;;19.19;79.86
52105;BME280;38103;42.776;23.112;2023-05-23T09:50:39;93782.59;;;19.23;77.99
52105;BME280;38103;42.776;23.112;2023-05-23T09:53:05;93784.44;;;19.42;76.04
52105;BME280;38103;42.776;23.112;2023-05-23T09:55:30;93789.63;;;19.52;69.80
52105;BME280;38103;42.776;23.112;2023-05-23T09:57:57;93784.22;;;19.24;66.40
52105;BME280;38103;42.776;23.112;2023-05-23T10:00:23;93792.38;;;19.14;67.40
52105;BME280;38103;42.776;23.112;2023-05-23T10:05:42;93788.69;;;18.76;68.22
52105;BME280;38103;42.776;23.112;2023-05-23T10:08:15;93784.66;;;18.93;70.07
52105;BME280;38103;42.776;23.112;2023-05-23T10:13:42;93778.94;;;19.19;67.20
52105;BME280;38103;42.776;23.112;2023-05-23T10:16:13;93775.59;;;19.41;71.07
52105;BME280;38103;42.776;23.112;2023-05-23T10:18:43;93775.69;;;19.36;67.81
52105;BME280;38103;42.776;23.112;2023-05-23T10:21:11;93783.00;;;19.30;71.82
52105;BME280;38103;42.776;23.112;2023-05-23T10:23:41;93782.97;;;18.97;68.40
52105;BME280;38103;42.776;23.112;2023-05-23T10:26:06;93770.63;;;19.01;71.41
52105;BME280;38103;42.776;23.112;2023-05-23T10:28:32;93774.28;;;19.05;70.51
52105;BME280;38103;42.776;23.112;2023-05-23T10:30:58;93770.91;;;19.19;68.18
52105;BME280;38103;42.776;23.112;2023-05-23T10:33:25;93770.72;;;19.29;66.12
52105;BME280;38103;42.776;23.112;2023-05-23T10:36:07;93772.81;;;19.13;66.34
52105;BME280;38103;42.776;23.112;2023-05-23T10:38:50;93767.69;;;19.17;65.57
52105;BME280;38103;42.776;23.112;2023-05-23T10:41:38;93759.59;;;19.22;67.72
52105;BME280;38103;42.776;23.112;2023-05-23T10:44:20;93764.78;;;19.33;59.22
52105;BME280;38103;42.776;23.112;2023-05-23T10:46:55;93760.03;;;19.58;62.49
52105;BME280;38103;42.776;23.112;2023-05-23T10:52:06;93748.53;;;19.99;67.73
52105;BME280;38103;42.776;23.112;2023-05-23T10:54:41;93758.44;;;19.85;64.83
52105;BME280;38103;42.776;23.112;2023-05-23T10:57:09;93747.91;;;19.74;59.97
52105;BME280;38103;42.776;23.112;2023-05-23T10:59:36;93752.50;;;19.88;60.07
52105;BME280;38103;42.776;23.112;2023-05-23T11:02:02;93747.63;;;19.90;61.94
52105;BME280;38103;42.776;23.112;2023-05-23T11:04:32;93746.94;;;19.98;59.97
52105;BME280;38103;42.776;23.112;2023-05-23T11:06:57;93740.38;;;20.05;60.59
52105;BME280;38103;42.776;23.112;2023-05-23T11:09:23;93745.16;;;20.22;60.95
52105;BME280;38103;42.776;23.112;2023-05-23T11:19:37;93732.59;;;20.03;58.95
52105;BME280;38103;42.776;23.112;2023-05-23T11:22:06;93727.44;;;20.21;62.54
52105;BME280;38103;42.776;23.112;2023-05-23T11:24:51;93729.34;;;20.06;58.44
52105;BME280;38103;42.776;23.112;2023-05-23T11:27:37;93719.22;;;20.17;59.35
52105;BME280;38103;42.776;23.112;2023-05-23T11:32:34;93714.72;;;20.27;57.60
52105;BME280;38103;42.776;23.112;2023-05-23T11:35:01;93681.00;;;20.20;53.82
52105;BME280;38103;42.776;23.112;2023-05-23T11:37:27;93715.28;;;20.38;57.33
52105;BME280;38103;42.776;23.112;2023-05-23T11:39:52;93707.75;;;20.26;56.37
52105;BME280;38103;42.776;23.112;2023-05-23T11:42:18;93705.94;;;20.35;57.54
52105;BME280;38103;42.776;23.112;2023-05-23T11:44:43;93697.19;;;20.43;55.77
52105;BME280;38103;42.776;23.112;2023-05-23T11:47:09;93699.44;;;20.50;52.27
52105;BME280;38103;42.776;23.112;2023-05-23T11:49:35;93699.13;;;20.52;51.79
52105;BME280;38103;42.776;23.112;2023-05-23T11:52:05;93700.38;;;20.31;50.93
52105;BME280;38103;42.776;23.112;2023-05-23T11:54:31;93694.19;;;20.31;55.45
52105;BME280;38103;42.776;23.112;2023-05-23T11:56:56;93698.75;;;20.45;55.09
52105;BME280;38103;42.776;23.112;2023-05-23T11:59:23;93656.63;;;20.31;51.55
52105;BME280;38103;42.776;23.112;2023-05-23T12:01:50;93690.09;;;20.71;54.99
52105;BME280;38103;42.776;23.112;2023-05-23T12:04:16;93698.38;;;20.83;53.36
52105;BME280;38103;42.776;23.112;2023-05-23T12:06:46;93685.91;;;20.87;51.77
52105;BME280;38103;42.776;23.112;2023-05-23T12:09:13;93672.75;;;20.77;52.45
52105;BME280;38103;42.776;23.112;2023-05-23T12:11:40;93687.78;;;20.78;54.10
52105;BME280;38103;42.776;23.112;2023-05-23T12:14:07;93680.94;;;20.72;53.55
52105;BME280;38103;42.776;23.112;2023-05-23T12:16:33;93674.41;;;20.64;52.17
52105;BME280;38103;42.776;23.112;2023-05-23T12:19:00;93674.81;;;20.80;55.13
52105;BME280;38103;42.776;23.112;2023-05-23T12:21:26;93678.84;;;20.92;54.66
52105;BME280;38103;42.776;23.112;2023-05-23T12:24:20;93638.56;;;20.69;52.34
52105;BME280;38103;42.776;23.112;2023-05-23T12:26:59;93665.78;;;20.76;53.49
52105;BME280;38103;42.776;23.112;2023-05-23T12:29:32;93652.94;;;20.64;55.08
52105;BME280;38103;42.776;23.112;2023-05-23T12:31:59;93660.34;;;20.67;56.51
52105;BME280;38103;42.776;23.112;2023-05-23T12:34:25;93658.31;;;20.96;59.79
52105;BME280;38103;42.776;23.112;2023-05-23T12:36:54;93662.66;;;21.06;56.06
52105;BME280;38103;42.776;23.112;2023-05-23T12:39:29;93663.94;;;20.85;50.97
52105;BME280;38103;42.776;23.112;2023-05-23T12:42:10;93660.41;;;20.76;54.67
52105;BME280;38103;42.776;23.112;2023-05-23T12:44:35;93669.09;;;20.73;51.56
52105;BME280;38103;42.776;23.112;2023-05-23T12:58:08;93673.28;;;22.02;53.77
52105;BME280;38103;42.776;23.112;2023-05-23T13:00:34;93675.91;;;21.75;59.69
52105;BME280;38103;42.776;23.112;2023-05-23T13:02:59;93665.53;;;21.50;61.04
52105;BME280;38103;42.776;23.112;2023-05-23T13:05:25;93670.06;;;21.32;60.81
52105;BME280;38103;42.776;23.112;2023-05-23T13:07:51;93662.03;;;21.09;62.77
52105;BME280;38103;42.776;23.112;2023-05-23T13:10:16;93662.50;;;21.02;65.91
52105;BME280;38103;42.776;23.112;2023-05-23T13:12:42;93664.13;;;20.89;66.52
52105;BME280;38103;42.776;23.112;2023-05-23T13:15:08;93656.91;;;20.67;67.09
52105;BME280;38103;42.776;23.112;2023-05-23T13:17:33;93668.50;;;20.53;67.63
52105;BME280;38103;42.776;23.112;2023-05-23T13:19:58;93668.59;;;20.25;69.61
52105;BME280;38103;42.776;23.112;2023-05-23T13:22:24;93661.63;;;20.24;69.04
52105;BME280;38103;42.776;23.112;2023-05-23T13:24:49;93658.38;;;20.13;67.51
52105;BME280;38103;42.776;23.112;2023-05-23T13:27:15;93658.44;;;20.21;67.49
52105;BME280;38103;42.776;23.112;2023-05-23T13:29:40;93652.78;;;20.09;66.30
52105;BME280;38103;42.776;23.112;2023-05-23T13:32:07;93663.44;;;20.14;66.75
52105;BME280;38103;42.776;23.112;2023-05-23T13:34:32;93627.91;;;19.94;68.26
52105;BME280;38103;42.776;23.112;2023-05-23T13:37:01;93664.88;;;20.35;68.58
52105;BME280;38103;42.776;23.112;2023-05-23T13:39:26;93665.94;;;20.48;68.01
52105;BME280;38103;42.776;23.112;2023-05-23T13:41:52;93664.84;;;20.72;66.31
52105;BME280;38103;42.776;23.112;2023-05-23T13:44:17;93662.38;;;20.84;64.13
52105;BME280;38103;42.776;23.112;2023-05-23T13:46:43;93663.66;;;21.10;64.33
52105;BME280;38103;42.776;23.112;2023-05-23T13:49:09;93648.16;;;21.16;61.51
52105;BME280;38103;42.776;23.112;2023-05-23T13:51:34;93666.63;;;21.40;63.35
52105;BME280;38103;42.776;23.112;2023-05-23T13:54:02;93672.03;;;21.58;62.93
52105;BME280;38103;42.776;23.112;2023-05-23T13:56:28;93674.09;;;21.52;57.47
52105;BME280;38103;42.776;23.112;2023-05-23T13:58:54;93665.25;;;21.61;56.92
52105;BME280;38103;42.776;23.112;2023-05-23T14:01:19;93667.75;;;21.57;56.77
52105;BME280;38103;42.776;23.112;2023-05-23T14:03:45;93659.69;;;21.48;57.10
52105;BME280;38103;42.776;23.112;2023-05-23T14:06:10;93662.66;;;21.38;56.00